Time;durP1;ratioP1;P1;durP2;ratioP2;P2;SDS_P1;SDS_P2;PMS_P1;PMS_P2;Temp;Humidity;BMP_temperature;BMP_pressure;BME280_temperature;BME280_humidity;BME280_pressure;Samples;Min_cycle;Max_cycle;Signal;HPM_P1;HPM_P2
2021/05/28 00:01:48;;;;;;;5.70;4.05;;;;;;;7.90;93.45;95991.34;5095881;28;20047;-69
2021/05/28 00:04:14;;;;;;;5.53;3.70;;;;;;;7.87;93.58;95991.81;5098082;28;20059;-69
2021/05/28 00:06:39;;;;;;;5.07;4.03;;;;;;;7.89;94.14;95995.00;5101704;28;20051;-69
2021/05/28 00:09:06;;;;;;;6.35;3.65;;;;;;;7.93;93.64;95990.84;5100756;28;20032;-70
2021/05/28 00:11:31;;;;;;;6.50;3.67;;;;;;;7.88;93.86;95988.16;5091659;28;20547;-69
2021/05/28 00:13:57;;;;;;;6.30;3.78;;;;;;;7.84;94.06;95987.84;5102690;28;20052;-69
2021/05/28 00:16:25;;;;;;;4.97;3.95;;;;;;;7.86;94.75;95984.97;5094039;28;20042;-69
2021/05/28 00:18:50;;;;;;;5.80;3.72;;;;;;;7.85;94.19;95993.91;5091649;28;20406;-70
2021/05/28 00:21:16;;;;;;;5.93;3.80;;;;;;;7.84;94.21;95997.53;5091723;28;20054;-69
2021/05/28 00:23:42;;;;;;;7.65;4.22;;;;;;;7.85;94.76;95988.66;5108707;28;20119;-70
2021/05/28 00:26:07;;;;;;;6.10;3.97;;;;;;;7.80;95.38;95992.78;5105841;28;20128;-71
2021/05/28 00:28:33;;;;;;;7.72;3.83;;;;;;;7.85;94.97;95993.91;5111151;27;20449;-70
2021/05/28 00:30:58;;;;;;;6.07;4.22;;;;;;;7.85;95.64;95988.66;5111556;28;20043;-71
2021/05/28 00:33:24;;;;;;;6.50;3.60;;;;;;;7.84;94.67;95981.81;5106970;28;20040;-71
2021/05/28 00:35:49;;;;;;;5.43;3.72;;;;;;;7.80;95.13;95981.50;5090826;28;20457;-71
2021/05/28 00:38:15;;;;;;;5.80;4.30;;;;;;;7.82;95.78;95986.50;5091204;28;20043;-70
2021/05/28 00:40:40;;;;;;;6.35;4.32;;;;;;;7.78;95.50;95986.19;5091114;28;20332;-70
2021/05/28 00:43:06;;;;;;;6.78;4.82;;;;;;;7.85;96.15;95984.19;5099638;28;20040;-70
2021/05/28 00:45:32;;;;;;;5.22;3.75;;;;;;;7.78;95.54;95983.56;5106342;28;20038;-70
2021/05/28 00:47:57;;;;;;;4.18;3.28;;;;;;;7.78;95.15;95984.34;5110372;28;20142;-70
2021/05/28 00:50:23;;;;;;;4.32;3.20;;;;;;;7.74;94.69;95979.84;5090643;28;20067;-70
2021/05/28 00:52:54;;;;;;;5.55;3.60;;;;;;;7.71;94.68;95978.47;5094198;28;20191;-70
2021/05/28 00:55:20;;;;;;;5.45;3.30;;;;;;;7.74;94.59;95978.03;5102611;28;20157;-70
2021/05/28 00:57:46;;;;;;;4.10;3.00;;;;;;;7.80;93.59;95982.31;5093379;28;20263;-70
2021/05/28 01:00:12;;;;;;;5.93;3.60;;;;;;;7.74;95.06;95982.44;5111078;28;20428;-71
2021/05/28 01:02:38;;;;;;;4.43;3.33;;;;;;;7.73;94.73;95981.66;5108879;28;20039;-70
2021/05/28 01:05:04;;;;;;;5.43;3.13;;;;;;;7.74;94.18;95979.84;5100781;28;20039;-70
2021/05/28 01:07:29;;;;;;;4.65;3.08;;;;;;;7.76;94.62;95991.66;5105040;28;20420;-70
2021/05/28 01:09:55;;;;;;;7.70;3.30;;;;;;;7.73;93.96;95992.16;5106699;28;20044;-70
2021/05/28 01:12:21;;;;;;;5.20;2.92;;;;;;;7.70;94.41;95987.38;5100305;28;20047;-70
2021/05/28 01:14:49;;;;;;;4.03;3.00;;;;;;;7.68;95.05;95991.28;5107098;28;20043;-70
2021/05/28 01:17:15;;;;;;;4.18;3.22;;;;;;;7.73;95.09;95997.38;5107537;28;20115;-70
2021/05/28 01:19:41;;;;;;;3.53;2.88;;;;;;;7.71;95.13;95988.16;5090033;28;20044;-70
2021/05/28 01:22:08;;;;;;;5.45;3.50;;;;;;;7.70;94.81;95992.63;5101984;28;20047;-70
2021/05/28 01:24:34;;;;;;;4.40;3.25;;;;;;;7.73;95.19;95992.16;5108578;28;20101;-70
2021/05/28 01:27:01;;;;;;;6.05;3.50;;;;;;;7.74;95.29;95993.75;5097769;28;20048;-70
2021/05/28 01:29:27;;;;;;;4.20;3.05;;;;;;;7.77;94.60;95988.03;5110524;28;20054;-70
2021/05/28 01:31:52;;;;;;;5.15;2.95;;;;;;;7.74;94.49;95988.50;5101071;28;20031;-70
2021/05/28 01:34:18;;;;;;;4.20;3.20;;;;;;;7.69;94.52;95991.03;5108511;28;20057;-69
2021/05/28 01:36:44;;;;;;;5.88;3.30;;;;;;;7.68;94.47;95989.44;5094807;28;20417;-70
2021/05/28 01:39:10;;;;;;;5.70;3.10;;;;;;;7.68;94.40;95989.44;5089265;28;20055;-70
2021/05/28 01:41:36;;;;;;;4.78;3.30;;;;;;;7.71;94.05;95991.56;5090443;28;20059;-70
2021/05/28 01:44:09;;;;;;;5.00;2.97;;;;;;;7.62;93.52;95985.16;5106811;28;20043;-71
2021/05/28 01:46:36;;;;;;;4.57;2.90;;;;;;;7.61;94.71;95979.16;5103240;28;20071;-71
2021/05/28 01:49:03;;;;;;;6.97;3.28;;;;;;;7.63;94.26;95986.75;5109910;28;20288;-71
2021/05/28 01:51:30;;;;;;;4.80;3.35;;;;;;;7.60;94.37;95981.97;5109824;28;20040;-71
2021/05/28 01:53:56;;;;;;;3.70;2.83;;;;;;;7.57;95.16;95982.44;5109345;28;20035;-70
2021/05/28 01:56:23;;;;;;;4.68;3.22;;;;;;;7.58;95.30;95978.81;5094511;28;20064;-70
2021/05/28 01:58:48;;;;;;;5.03;3.10;;;;;;;7.59;94.57;95980.41;5090115;28;20071;-70
2021/05/28 02:01:14;;;;;;;4.45;2.88;;;;;;;7.60;94.13;95988.03;5092479;28;22410;-70
2021/05/28 02:03:40;;;;;;;4.38;3.22;;;;;;;7.56;95.64;95986.13;5103674;28;20040;-70
2021/05/28 02:06:05;;;;;;;4.18;3.00;;;;;;;7.50;95.09;95981.81;5098899;28;20040;-70
2021/05/28 02:08:31;;;;;;;5.53;2.92;;;;;;;7.46;95.18;95984.91;5097937;28;20478;-70
2021/05/28 02:10:57;;;;;;;6.43;3.40;;;;;;;7.43;94.93;95982.78;5108943;28;20044;-70
2021/05/28 02:13:22;;;;;;;4.70;3.40;;;;;;;7.40;95.26;95983.25;5109513;28;20394;-70
2021/05/28 02:15:48;;;;;;;4.55;3.30;;;;;;;7.40;95.96;95972.78;5107262;28;20084;-70
2021/05/28 02:18:14;;;;;;;6.03;3.50;;;;;;;7.36;96.04;95976.91;5102990;28;20494;-70
2021/05/28 02:20:39;;;;;;;5.82;3.40;;;;;;;7.34;95.90;95976.34;5092762;28;20054;-70
2021/05/28 02:23:05;;;;;;;4.85;3.50;;;;;;;7.27;95.85;95978.31;5104160;28;20158;-70
2021/05/28 02:25:30;;;;;;;5.45;3.65;;;;;;;7.30;96.01;95972.63;5104466;28;20154;-70
2021/05/28 02:27:56;;;;;;;4.10;3.30;;;;;;;7.25;96.34;95981.16;5106203;28;20116;-70
2021/05/28 02:30:21;;;;;;;5.90;3.13;;;;;;;7.25;95.73;95983.00;5103925;28;20039;-70
2021/05/28 02:32:47;;;;;;;5.50;3.28;;;;;;;7.23;95.01;95982.44;5108145;28;20040;-70
2021/05/28 02:35:13;;;;;;;4.93;3.00;;;;;;;7.22;94.56;95993.94;5104238;28;20089;-70
2021/05/28 02:37:38;;;;;;;5.68;3.33;;;;;;;7.22;95.22;95983.47;5108999;28;20035;-70
2021/05/28 02:40:07;;;;;;;5.28;3.10;;;;;;;7.20;95.33;95988.16;5106693;28;20417;-70
2021/05/28 02:42:34;;;;;;;4.15;3.10;;;;;;;7.10;95.20;95984.31;5108684;28;20091;-70
2021/05/28 02:45:00;;;;;;;4.10;3.00;;;;;;;7.06;96.02;95993.66;5102935;28;20044;-70
2021/05/28 02:47:26;;;;;;;5.32;3.38;;;;;;;7.02;95.83;95984.69;5103887;28;20439;-70
2021/05/28 02:49:52;;;;;;;5.45;3.00;;;;;;;7.01;94.71;95985.75;5110116;28;20036;-70
2021/05/28 02:52:17;;;;;;;4.53;3.28;;;;;;;6.94;94.82;95992.94;5111474;28;20443;-70
2021/05/28 02:54:44;;;;;;;4.63;3.00;;;;;;;6.83;95.48;95988.53;5111572;28;20051;-70
2021/05/28 02:57:11;;;;;;;4.90;3.25;;;;;;;6.64;96.13;95990.50;5113174;28;20109;-69
2021/05/28 02:59:36;;;;;;;6.22;3.55;;;;;;;6.58;95.99;95987.03;5104759;28;20121;-69
2021/05/28 03:02:03;;;;;;;5.28;3.60;;;;;;;6.55;96.39;95982.25;5093061;28;20097;-69
2021/05/28 03:04:28;;;;;;;5.40;3.55;;;;;;;6.49;96.69;95988.41;5093464;28;20512;-69
2021/05/28 03:06:54;;;;;;;5.28;4.10;;;;;;;6.53;96.66;95979.06;5107599;28;20137;-69
2021/05/28 03:09:20;;;;;;;6.97;4.68;;;;;;;6.55;97.12;95977.00;5101042;28;20462;-69
2021/05/28 03:11:46;;;;;;;5.55;4.00;;;;;;;6.45;96.96;95977.63;5092932;28;20094;-71
2021/05/28 03:14:11;;;;;;;4.95;3.80;;;;;;;6.35;96.57;95978.22;5093041;28;20055;-70
2021/05/28 03:16:37;;;;;;;6.47;3.97;;;;;;;6.41;97.37;95987.72;5092525;28;20044;-70
2021/05/28 03:19:06;;;;;;;5.97;4.07;;;;;;;6.38;97.02;95982.97;5104828;28;20040;-70
2021/05/28 03:24:00;;;;;;;5.97;4.30;;;;;;;6.37;97.43;95991.84;5113261;28;20054;-70
2021/05/28 03:26:27;;;;;;;9.88;5.40;;;;;;;6.40;97.93;95991.38;5100889;28;20036;-70
2021/05/28 03:28:55;;;;;;;10.05;5.80;;;;;;;6.46;98.06;95994.09;5100094;28;20540;-70
2021/05/28 03:31:23;;;;;;;6.30;4.85;;;;;;;6.54;98.02;95985.91;5092753;28;20036;-70
2021/05/28 03:33:48;;;;;;;6.70;4.57;;;;;;;6.63;97.48;95989.72;5092555;28;20078;-71
2021/05/28 03:36:15;;;;;;;7.97;4.38;;;;;;;6.69;96.26;95999.25;5096590;28;20062;-71
2021/05/28 03:38:41;;;;;;;6.32;4.15;;;;;;;6.76;96.25;95999.91;5094232;28;20109;-70
2021/05/28 03:41:06;;;;;;;6.03;4.65;;;;;;;6.81;96.25;95998.41;5091565;28;20572;-70
2021/05/28 03:43:32;;;;;;;4.90;3.65;;;;;;;6.81;95.96;96001.03;5096049;28;20055;-70
2021/05/28 03:45:58;;;;;;;4.22;3.17;;;;;;;6.87;94.78;95997.50;5108308;28;20089;-70
2021/05/28 03:48:24;;;;;;;5.40;3.38;;;;;;;6.90;94.42;95999.66;5107010;28;20059;-70
2021/05/28 03:50:49;;;;;;;4.15;3.00;;;;;;;6.92;94.75;95992.34;5112173;28;20114;-70
2021/05/28 03:53:15;;;;;;;4.15;3.45;;;;;;;6.92;93.98;96000.22;5112549;28;20050;-70
2021/05/28 03:55:41;;;;;;;6.45;3.33;;;;;;;6.97;93.17;95995.06;5096574;28;20047;-71
2021/05/28 03:58:06;;;;;;;4.15;3.20;;;;;;;7.01;93.91;96001.44;5092639;28;20043;-72
2021/05/28 04:00:32;;;;;;;6.93;3.35;;;;;;;7.02;94.12;96003.00;5112290;28;20071;-72
2021/05/28 04:02:57;;;;;;;5.95;3.25;;;;;;;7.05;93.19;96002.56;5110352;28;20040;-72
2021/05/28 04:05:23;;;;;;;4.30;3.22;;;;;;;7.04;93.04;96000.97;5111908;28;20036;-70
2021/05/28 04:07:49;;;;;;;4.50;2.90;;;;;;;7.08;92.83;95996.03;5108258;28;20048;-70
2021/05/28 04:10:15;;;;;;;4.63;2.95;;;;;;;7.09;93.20;96003.66;5110060;28;20059;-70
2021/05/28 04:12:41;;;;;;;5.90;3.78;;;;;;;7.13;93.45;96000.59;5112281;28;20055;-70
2021/05/28 04:15:08;;;;;;;4.50;3.47;;;;;;;7.21;93.26;96008.03;5110422;28;20044;-70
2021/05/28 04:17:34;;;;;;;4.32;3.50;;;;;;;7.24;94.38;96005.78;5099290;28;20111;-70
2021/05/28 04:19:59;;;;;;;4.90;3.30;;;;;;;7.29;93.69;96002.44;5102876;28;20050;-70
2021/05/28 04:22:26;;;;;;;5.72;3.22;;;;;;;7.28;92.64;95999.03;5111867;28;20055;-70
2021/05/28 04:24:52;;;;;;;6.95;3.42;;;;;;;7.35;93.13;96001.47;5107625;28;20109;-70
2021/05/28 04:27:17;;;;;;;5.18;3.20;;;;;;;7.35;92.90;96005.94;5093934;28;20373;-70
2021/05/28 04:29:43;;;;;;;4.18;3.20;;;;;;;7.34;93.66;96009.56;5105330;28;20096;-70
2021/05/28 04:32:08;;;;;;;4.53;3.13;;;;;;;7.35;92.71;96006.72;5105330;28;20035;-70
2021/05/28 04:34:35;;;;;;;4.68;3.30;;;;;;;7.39;92.88;96004.44;5107891;28;20047;-70
2021/05/28 04:37:01;;;;;;;6.28;3.40;;;;;;;7.45;92.88;96001.66;5110893;28;20036;-70
2021/05/28 04:39:27;;;;;;;3.85;2.88;;;;;;;7.58;92.01;96005.00;5101936;28;20557;-70
2021/05/28 04:41:54;;;;;;;3.40;2.88;;;;;;;7.55;92.11;96008.09;5110269;28;20051;-71
2021/05/28 04:44:19;;;;;;;4.90;3.20;;;;;;;7.53;92.48;96008.34;5111482;28;20046;-70
2021/05/28 04:46:45;;;;;;;4.47;3.10;;;;;;;7.60;92.49;96013.41;5110825;28;20036;-70
2021/05/28 04:49:11;;;;;;;3.95;3.10;;;;;;;7.57;92.52;96014.69;5106175;28;20043;-70
2021/05/28 04:51:36;;;;;;;5.75;3.20;;;;;;;7.61;93.16;96009.75;5107634;28;20151;-70
2021/05/28 04:54:02;;;;;;;5.82;2.95;;;;;;;7.62;92.61;96006.13;5111583;27;20039;-70
2021/05/28 04:56:27;;;;;;;4.43;2.92;;;;;;;7.68;91.86;96005.16;5111331;28;20444;-70
2021/05/28 04:58:53;;;;;;;4.00;2.80;;;;;;;7.72;90.63;96010.72;5110012;28;20054;-70
2021/05/28 05:01:19;;;;;;;5.93;2.92;;;;;;;7.76;92.03;96017.88;5106279;28;20040;-70
2021/05/28 05:03:44;;;;;;;3.70;2.60;;;;;;;7.83;90.62;96020.34;5111077;28;20055;-70
2021/05/28 05:06:10;;;;;;;5.18;2.60;;;;;;;7.87;91.01;96018.81;5107645;28;20044;-70
2021/05/28 05:08:36;;;;;;;3.40;2.53;;;;;;;7.94;90.49;96024.69;5106867;28;20055;-70
2021/05/28 05:11:02;;;;;;;3.30;2.60;;;;;;;8.03;91.74;96022.47;5095902;28;20074;-70
2021/05/28 05:13:28;;;;;;;3.25;2.60;;;;;;;8.09;91.36;96021.50;5110781;28;20107;-70
2021/05/28 05:15:53;;;;;;;5.05;2.60;;;;;;;8.10;89.81;96028.34;5110773;28;20051;-69
2021/05/28 05:18:19;;;;;;;4.57;2.70;;;;;;;8.14;90.37;96026.78;5109202;28;20047;-69
2021/05/28 05:20:45;;;;;;;3.97;2.50;;;;;;;8.21;89.50;96025.84;5103705;28;20551;-70
2021/05/28 05:23:10;;;;;;;5.03;2.47;;;;;;;8.32;89.49;96032.84;5110579;28;20447;-69
2021/05/28 05:25:36;;;;;;;3.40;2.50;;;;;;;8.32;89.64;96027.59;5110473;28;20093;-69
2021/05/28 05:28:02;;;;;;;3.80;2.47;;;;;;;8.30;89.79;96032.25;5108987;28;20253;-69
2021/05/28 05:30:27;;;;;;;3.83;2.53;;;;;;;8.22;88.67;96035.31;5107290;28;20477;-69
2021/05/28 05:32:53;;;;;;;2.97;2.35;;;;;;;8.22;89.99;96030.06;5095786;28;20386;-69
2021/05/28 05:35:18;;;;;;;3.65;2.53;;;;;;;8.24;89.42;96038.47;5102164;28;20082;-69
2021/05/28 05:37:44;;;;;;;6.03;3.20;;;;;;;8.28;91.55;96037.75;5105654;28;20142;-69
2021/05/28 05:40:10;;;;;;;5.32;2.60;;;;;;;8.35;90.12;96045.47;5104203;28;20455;-69
2021/05/28 05:42:37;;;;;;;3.85;2.45;;;;;;;8.53;88.56;96041.00;5107557;28;20035;-69
2021/05/28 05:45:05;;;;;;;5.00;2.60;;;;;;;8.64;88.75;96042.72;5108437;28;20043;-69
2021/05/28 05:47:30;;;;;;;3.83;2.42;;;;;;;8.59;88.60;96029.53;5108436;28;20111;-69
2021/05/28 05:49:56;;;;;;;3.17;2.35;;;;;;;8.65;88.86;96033.81;5106344;28;20097;-69
2021/05/28 05:52:22;;;;;;;3.33;2.40;;;;;;;8.70;88.62;96039.09;5108649;28;20058;-70
2021/05/28 05:54:47;;;;;;;3.90;2.40;;;;;;;8.74;87.53;96037.59;5110320;28;20070;-70
2021/05/28 05:57:13;;;;;;;3.88;2.58;;;;;;;8.83;88.84;96036.13;5108974;28;20039;-69
2021/05/28 05:59:38;;;;;;;5.68;2.50;;;;;;;8.81;86.34;96030.31;5110771;28;20104;-70
2021/05/28 06:02:04;;;;;;;4.60;2.40;;;;;;;8.86;87.02;96028.78;5106534;28;20062;-69
2021/05/28 06:04:30;;;;;;;4.30;2.50;;;;;;;8.90;87.61;96024.66;5110470;28;20050;-69
2021/05/28 06:06:55;;;;;;;6.07;2.20;;;;;;;9.03;86.79;96024.25;5107231;28;20093;-69
2021/05/28 06:09:21;;;;;;;4.93;2.72;;;;;;;9.15;88.58;96026.75;5089645;28;20505;-69
2021/05/28 06:11:46;;;;;;;4.55;2.60;;;;;;;9.24;88.76;96017.38;5095247;28;20120;-69
2021/05/28 06:14:12;;;;;;;2.92;2.15;;;;;;;9.30;87.85;96018.22;5106052;28;20075;-69
2021/05/28 06:16:38;;;;;;;3.53;2.38;;;;;;;9.25;88.40;96015.53;5102645;28;20068;-69
2021/05/28 06:19:03;;;;;;;5.43;2.60;;;;;;;9.15;88.42;96017.03;5110005;28;20046;-70
2021/05/28 06:21:32;;;;;;;4.75;2.45;;;;;;;9.26;87.13;96023.19;5109716;28;20070;-69
2021/05/28 06:23:58;;;;;;;4.78;2.50;;;;;;;9.23;86.22;96017.63;5103902;28;20119;-69
2021/05/28 06:26:23;;;;;;;4.25;2.72;;;;;;;9.24;83.65;96013.94;5100337;28;20040;-70
2021/05/28 06:28:49;;;;;;;3.28;2.70;;;;;;;9.23;84.68;96021.03;5093736;28;20052;-69
2021/05/28 06:31:14;;;;;;;5.65;2.70;;;;;;;9.27;82.68;96024.00;5113572;28;20051;-70
2021/05/28 06:33:40;;;;;;;4.28;2.90;;;;;;;9.40;82.88;96020.94;5104123;27;20058;-69
2021/05/28 06:36:06;;;;;;;4.25;3.10;;;;;;;9.47;83.91;96024.16;5096580;28;20036;-69
2021/05/28 06:38:32;;;;;;;4.53;2.92;;;;;;;9.61;81.89;96019.31;5094816;28;20040;-69
2021/05/28 06:40:57;;;;;;;4.97;3.28;;;;;;;9.57;81.29;96027.91;5102325;28;20051;-69
2021/05/28 06:43:23;;;;;;;6.28;2.63;;;;;;;9.54;82.08;96024.75;5101027;28;20036;-69
2021/05/28 06:45:48;;;;;;;3.60;2.65;;;;;;;9.74;80.57;96018.09;5103058;28;20043;-69
2021/05/28 06:48:14;;;;;;;6.88;3.47;;;;;;;9.84;79.24;96017.34;5101702;28;20403;-69
2021/05/28 06:50:41;;;;;;;6.45;3.60;;;;;;;9.71;80.46;96018.56;5113518;28;20044;-69
2021/05/28 06:53:08;;;;;;;4.60;3.17;;;;;;;9.71;78.93;96022.00;5106576;28;20047;-69
2021/05/28 06:55:35;;;;;;;5.80;3.40;;;;;;;9.79;79.69;96028.63;5093277;28;20036;-70
2021/05/28 06:58:00;;;;;;;4.07;2.92;;;;;;;9.90;79.91;96032.16;5108784;28;20058;-69
2021/05/28 07:00:26;;;;;;;5.20;2.75;;;;;;;9.95;77.93;96039.28;5113439;28;20051;-69
2021/05/28 07:02:55;;;;;;;5.00;3.30;;;;;;;9.86;80.40;96037.09;5113165;28;20043;-69
2021/05/28 07:05:24;;;;;;;4.50;3.20;;;;;;;9.93;77.92;96041.34;5112293;28;20050;-69
2021/05/28 07:07:50;;;;;;;4.85;3.38;;;;;;;10.03;76.65;96042.22;5093125;28;20124;-69
2021/05/28 07:10:15;;;;;;;5.47;4.10;;;;;;;9.79;79.82;96035.72;5092559;28;20044;-69
2021/05/28 07:12:41;;;;;;;5.18;3.47;;;;;;;9.82;80.68;96036.00;5110779;28;20062;-69
2021/05/28 07:15:09;;;;;;;4.80;3.65;;;;;;;9.92;78.23;96042.41;5105452;28;20027;-69
2021/05/28 07:17:35;;;;;;;6.57;4.00;;;;;;;9.77;80.05;96035.19;5105133;28;20110;-69
2021/05/28 07:20:02;;;;;;;7.47;3.63;;;;;;;9.65;80.35;96030.09;5111510;28;20443;-69
2021/05/28 07:22:28;;;;;;;4.90;3.10;;;;;;;9.84;75.43;96038.38;5113104;28;20051;-69
2021/05/28 07:24:53;;;;;;;4.85;3.75;;;;;;;9.78;78.64;96034.94;5111900;28;20062;-70
2021/05/28 07:27:19;;;;;;;4.97;3.65;;;;;;;9.80;81.94;96032.84;5100500;28;20088;-69
2021/05/28 07:29:45;;;;;;;7.45;4.20;;;;;;;9.73;81.38;96045.41;5112734;28;20063;-70
2021/05/28 07:32:10;;;;;;;6.05;4.07;;;;;;;9.98;79.63;96044.03;5112917;28;20497;-70
2021/05/28 07:34:38;;;;;;;6.55;4.00;;;;;;;10.06;78.32;96046.97;5111343;28;20047;-70
2021/05/28 07:37:04;;;;;;;6.32;3.78;;;;;;;10.20;75.97;96047.34;5100739;28;20659;-69
2021/05/28 07:39:30;;;;;;;6.32;3.85;;;;;;;10.36;75.73;96044.84;5111346;28;20442;-70
2021/05/28 07:41:55;;;;;;;5.38;3.15;;;;;;;10.36;78.79;96045.63;5112559;28;20063;-70
2021/05/28 07:44:21;;;;;;;5.60;3.63;;;;;;;10.49;74.98;96039.13;5112526;27;20508;-70
2021/05/28 07:46:48;;;;;;;5.95;3.67;;;;;;;10.92;73.18;96041.69;5108796;28;20067;-70
2021/05/28 07:49:15;;;;;;;4.47;3.28;;;;;;;11.09;75.77;96042.25;5104237;28;20044;-76
2021/05/28 07:51:41;;;;;;;5.45;3.50;;;;;;;11.22;74.78;96046.25;5112194;28;20115;-70
2021/05/28 07:54:08;;;;;;;6.05;4.03;;;;;;;11.30;70.88;96036.25;5112335;28;20481;-70
2021/05/28 07:56:34;;;;;;;6.80;3.75;;;;;;;11.39;75.79;96029.41;5106940;28;20043;-69
2021/05/28 07:59:01;;;;;;;5.38;3.88;;;;;;;11.60;71.89;96031.00;5106708;28;20047;-69
2021/05/28 08:01:27;;;;;;;4.85;3.30;;;;;;;11.84;70.51;96025.22;5112395;28;20047;-70
2021/05/28 08:03:54;;;;;;;5.15;3.33;;;;;;;12.06;69.41;96026.81;5101921;28;20036;-70
2021/05/28 08:06:19;;;;;;;5.30;3.55;;;;;;;12.18;70.92;96029.97;5098058;28;20125;-70
2021/05/28 08:08:45;;;;;;;5.40;3.38;;;;;;;12.17;72.12;96036.31;5091573;28;20118;-69
2021/05/28 08:11:11;;;;;;;4.82;3.47;;;;;;;12.07;72.90;96028.41;5095110;28;20544;-70
2021/05/28 08:13:36;;;;;;;4.93;3.28;;;;;;;12.22;72.58;96035.50;5106905;28;20500;-69
2021/05/28 08:16:03;;;;;;;4.60;3.15;;;;;;;12.32;70.56;96040.75;5108743;28;20040;-69
2021/05/28 08:18:29;;;;;;;6.43;3.50;;;;;;;12.27;69.75;96038.94;5110283;28;20055;-69
2021/05/28 08:20:56;;;;;;;4.85;3.40;;;;;;;12.16;70.43;96037.34;5112586;28;20054;-70
2021/05/28 08:23:21;;;;;;;4.85;3.30;;;;;;;12.08;67.60;96035.25;5112439;28;20081;-71
2021/05/28 08:25:49;;;;;;;5.50;3.63;;;;;;;12.03;72.86;96027.38;5103410;28;20032;-73
2021/05/28 08:28:16;;;;;;;5.22;3.13;;;;;;;11.90;71.35;96028.66;5100682;28;20035;-70
2021/05/28 08:30:42;;;;;;;5.90;3.17;;;;;;;11.76;69.17;96038.94;5108352;28;20036;-70
2021/05/28 08:33:12;;;;;;;5.35;3.10;;;;;;;11.79;72.87;96033.94;5107006;28;20047;-70
2021/05/28 08:35:42;;;;;;;5.05;2.78;;;;;;;11.83;71.88;96034.19;5092160;28;20036;-70
2021/05/28 08:38:08;;;;;;;5.72;3.17;;;;;;;11.89;71.64;96038.41;5098757;28;20188;-70
2021/05/28 08:40:34;;;;;;;5.47;3.30;;;;;;;11.96;71.83;96038.94;5095247;28;20040;-70
2021/05/28 08:43:02;;;;;;;6.20;3.22;;;;;;;12.03;66.94;96043.19;5091593;28;20516;-70
2021/05/28 08:45:34;;;;;;;4.60;3.00;;;;;;;11.98;68.23;96040.53;5091057;28;20075;-70
2021/05/28 08:48:01;;;;;;;4.35;3.10;;;;;;;12.25;66.98;96034.97;5099154;28;20047;-70
2021/05/28 08:50:26;;;;;;;5.15;3.10;;;;;;;12.37;65.78;96032.84;5110977;28;20032;-70
2021/05/28 08:52:52;;;;;;;5.93;3.83;;;;;;;12.43;64.70;96031.00;5106839;28;20447;-70
2021/05/28 08:55:18;;;;;;;3.40;2.90;;;;;;;12.80;62.18;96029.78;5108924;28;20051;-71
2021/05/28 08:57:44;;;;;;;4.55;3.00;;;;;;;13.14;62.67;96023.84;5106421;28;20410;-70
2021/05/28 09:00:10;;;;;;;5.93;2.90;;;;;;;13.13;64.59;96027.53;5106380;28;20497;-70
2021/05/28 09:02:38;;;;;;;4.78;2.70;;;;;;;13.32;62.10;96028.50;5105787;28;20028;-70
2021/05/28 09:05:07;;;;;;;4.07;2.72;;;;;;;13.03;62.66;96027.59;5104871;28;20082;-70
2021/05/28 09:07:32;;;;;;;4.82;3.10;;;;;;;12.67;65.05;96025.09;5106342;28;20497;-70
2021/05/28 09:09:58;;;;;;;4.63;3.15;;;;;;;12.55;64.92;96034.09;5098430;28;20127;-70
2021/05/28 09:12:27;;;;;;;6.25;4.03;;;;;;;12.47;67.40;96032.03;5110828;28;20040;-69
2021/05/28 09:14:54;;;;;;;5.80;3.80;;;;;;;12.48;71.60;96038.88;5101868;28;20123;-70
2021/05/28 09:17:20;;;;;;;5.47;3.53;;;;;;;12.75;62.57;96033.25;5102671;28;20063;-70
2021/05/28 09:19:57;;;;;;;6.57;3.50;;;;;;;12.98;69.37;96033.69;5106389;28;20040;-70
2021/05/28 09:22:37;;;;;;;5.97;3.50;;;;;;;13.33;59.66;96027.44;5106550;28;20043;-70
2021/05/28 09:25:04;;;;;;;4.38;3.25;;;;;;;13.65;59.97;96028.84;5100778;28;20032;-69
2021/05/28 09:27:33;;;;;;;4.90;3.25;;;;;;;13.79;63.08;96036.13;5103185;28;20058;-69
2021/05/28 09:30:06;;;;;;;6.18;3.60;;;;;;;13.60;61.59;96031.50;5104650;28;20055;-69
2021/05/28 09:32:34;;;;;;;5.43;4.07;;;;;;;13.16;63.94;96032.28;5108470;28;20039;-69
2021/05/28 09:35:00;;;;;;;5.38;3.72;;;;;;;13.16;61.43;96042.88;5107400;28;20054;-70
2021/05/28 09:37:35;;;;;;;5.35;3.20;;;;;;;13.00;64.83;96035.00;5104661;28;20056;-70
2021/05/28 09:40:17;;;;;;;8.10;3.60;;;;;;;12.95;66.27;96039.53;5103233;28;20230;-69
2021/05/28 09:42:55;;;;;;;4.45;3.38;;;;;;;13.21;65.34;96034.91;5107065;28;20524;-69
2021/05/28 09:45:32;;;;;;;4.10;3.20;;;;;;;13.46;61.50;96041.13;5103105;28;20068;-70
2021/05/28 09:48:03;;;;;;;5.90;3.17;;;;;;;13.85;62.33;96037.69;5101755;28;20035;-70
2021/05/28 09:50:33;;;;;;;5.60;3.70;;;;;;;14.17;59.60;96033.72;5090245;28;20044;-70
2021/05/28 09:53:03;;;;;;;8.18;3.60;;;;;;;14.13;62.37;96024.75;5100265;28;20046;-69
2021/05/28 09:55:35;;;;;;;5.45;3.50;;;;;;;14.80;62.01;96026.72;5106983;28;20044;-70
2021/05/28 09:58:01;;;;;;;5.53;3.20;;;;;;;14.73;57.39;96029.72;5103625;28;20050;-69
2021/05/28 10:00:32;;;;;;;4.03;2.63;;;;;;;14.19;57.29;96020.97;5108033;28;20073;-69
2021/05/28 10:03:10;;;;;;;4.78;2.95;;;;;;;14.19;59.89;96026.25;5114177;28;20112;-70
2021/05/28 10:05:41;;;;;;;7.45;2.80;;;;;;;14.32;57.32;96025.63;5103651;28;20070;-70
2021/05/28 10:08:07;;;;;;;4.18;2.72;;;;;;;14.20;58.34;96022.56;5099758;28;20097;-69
2021/05/28 10:10:35;;;;;;;4.05;2.67;;;;;;;14.27;60.80;96017.72;5110187;28;20480;-69
2021/05/28 10:13:10;;;;;;;2.92;2.40;;;;;;;14.46;56.13;96017.78;5114424;28;20051;-70
2021/05/28 10:15:40;;;;;;;3.42;2.30;;;;;;;14.64;55.57;96018.94;5109088;28;20067;-69
2021/05/28 10:18:06;;;;;;;5.13;2.92;;;;;;;14.30;57.31;96017.16;5104019;28;20047;-69
2021/05/28 10:20:32;;;;;;;4.55;2.80;;;;;;;14.79;59.08;96012.69;5111048;28;20065;-69
2021/05/28 10:22:58;;;;;;;5.28;2.70;;;;;;;15.07;57.46;96013.66;5111842;28;20048;-69
2021/05/28 10:25:24;;;;;;;6.20;2.97;;;;;;;15.20;55.89;96006.06;5102692;28;20044;-69
2021/05/28 10:27:58;;;;;;;4.82;3.00;;;;;;;15.22;57.29;96011.88;5109148;28;20122;-69
2021/05/28 10:30:35;;;;;;;4.55;3.08;;;;;;;14.99;57.63;96006.34;5112398;28;20054;-70
2021/05/28 10:33:18;;;;;;;7.72;3.00;;;;;;;15.23;57.61;96016.09;5105475;28;20062;-69
2021/05/28 10:35:48;;;;;;;4.57;2.78;;;;;;;15.31;55.14;96012.78;5109278;28;20424;-69
2021/05/28 10:38:29;;;;;;;3.63;2.60;;;;;;;15.28;54.83;96013.38;5111035;28;20066;-69
2021/05/28 10:41:04;;;;;;;4.53;3.20;;;;;;;15.52;53.31;96009.88;5098718;28;20040;-69
2021/05/28 10:43:31;;;;;;;5.07;3.22;;;;;;;15.64;57.47;96004.09;5108271;28;20039;-69
2021/05/28 10:46:07;;;;;;;4.57;3.20;;;;;;;15.50;56.27;96009.34;5113468;28;20043;-69
2021/05/28 10:48:39;;;;;;;5.55;3.42;;;;;;;15.60;55.43;96003.88;5103151;28;20070;-69
2021/05/28 10:51:09;;;;;;;7.70;3.58;;;;;;;15.09;56.41;95999.34;5106378;28;20156;-69
2021/05/28 10:53:35;;;;;;;5.20;3.50;;;;;;;15.02;55.42;95995.16;5113922;28;20146;-69
2021/05/28 10:56:01;;;;;;;5.85;3.65;;;;;;;15.17;56.25;95996.03;5108707;28;20038;-69
2021/05/28 10:58:51;;;;;;;8.55;3.45;;;;;;;15.00;57.23;95996.53;5108367;28;20048;-71
2021/05/28 11:01:35;;;;;;;3.80;3.00;;;;;;;15.31;53.44;95991.56;5103120;28;20450;-72
2021/05/28 11:04:11;;;;;;;5.35;3.00;;;;;;;15.19;55.81;95989.38;5112030;28;20040;-72
2021/05/28 11:06:55;;;;;;;3.55;2.92;;;;;;;15.35;55.95;95992.59;5100775;28;20408;-72
2021/05/28 11:09:43;;;;;;;4.90;3.30;;;;;;;15.26;51.84;95989.00;5095196;28;20051;-72
2021/05/28 11:12:09;;;;;;;4.90;3.63;;;;;;;15.39;53.34;95992.81;5111111;28;20043;-72
2021/05/28 11:14:37;;;;;;;4.30;2.85;;;;;;;15.63;52.17;95992.72;5104482;28;20048;-72
2021/05/28 11:17:02;;;;;;;3.33;2.60;;;;;;;15.85;51.45;95986.03;5112307;28;20064;-72
2021/05/28 11:19:33;;;;;;;5.20;2.63;;;;;;;16.49;51.85;95985.41;5112309;28;20500;-71
2021/05/28 11:22:01;;;;;;;3.28;2.50;;;;;;;17.37;49.69;95987.88;5111330;28;20070;-73
2021/05/28 11:24:45;;;;;;;5.13;2.83;;;;;;;17.41;48.50;95983.53;5112761;27;20036;-71
2021/05/28 11:27:34;;;;;;;4.05;3.03;;;;;;;19.16;47.43;95984.31;5108059;28;20044;-78
2021/05/28 11:30:03;;;;;;;4.30;3.63;;;;;;;18.61;47.67;95979.47;5115512;28;20073;-78
2021/05/28 11:32:32;;;;;;;5.90;3.33;;;;;;;18.14;47.96;95972.69;5111151;28;20032;-75
2021/05/28 11:35:13;;;;;;;5.57;3.67;;;;;;;17.61;50.15;95982.25;5114506;28;20501;-78
2021/05/28 11:37:43;;;;;;;4.57;3.50;;;;;;;16.76;52.80;95980.06;5101892;28;20570;-78
2021/05/28 11:40:29;;;;;;;5.25;3.90;;;;;;;16.69;53.89;95974.38;5110382;28;20408;-79
2021/05/28 11:43:04;;;;;;;5.82;4.10;;;;;;;16.69;53.65;95979.69;5110859;28;20035;-81